Time;durP1;ratioP1;P1;durP2;ratioP2;P2;SDS_P1;SDS_P2;PMS_P1;PMS_P2;Temp;Humidity;BMP_temperature;BMP_pressure;BME280_temperature;BME280_humidity;BME280_pressure;Samples;Min_cycle;Max_cycle;Signal;HPM_P1;HPM_P2
2024/04/06 00:02:07;;;;;;;10.48;4.90;;;;;;;;;;5073267;28;20020;-84
2024/04/06 00:04:33;;;;;;;10.88;5.32;;;;;;;;;;5055523;28;20533;-84
2024/04/06 00:06:59;;;;;;;9.43;4.60;;;;;;;;;;5055291;28;20027;-83
2024/04/06 00:09:25;;;;;;;9.45;5.00;;;;;;;;;;5055549;28;20106;-84
2024/04/06 00:11:51;;;;;;;11.32;4.85;;;;;;;;;;5055476;28;20029;-83
2024/04/06 00:14:20;;;;;;;7.40;4.28;;;;;;;;;;5055167;28;20424;-83
2024/04/06 00:16:46;;;;;;;10.23;4.97;;;;;;;;;;5055450;28;20032;-83
2024/04/06 00:19:12;;;;;;;10.85;5.05;;;;;;;;;;5074480;28;20024;-85
2024/04/06 00:21:38;;;;;;;12.93;5.32;;;;;;;;;;5074197;28;20017;-84
2024/04/06 00:24:05;;;;;;;9.55;4.57;;;;;;;;;;5056495;28;20025;-83
2024/04/06 00:26:31;;;;;;;12.15;4.72;;;;;;;;;;5056037;28;20068;-85
2024/04/06 00:28:57;;;;;;;9.73;5.22;;;;;;;;;;5054738;28;20035;-87
2024/04/06 00:31:23;;;;;;;10.05;4.47;;;;;;;;;;5054697;28;20056;-86
2024/04/06 00:33:49;;;;;;;10.30;4.63;;;;;;;;;;5073133;28;20086;-86
2024/04/06 00:36:16;;;;;;;7.90;4.03;;;;;;;;;;5055386;28;20020;-85
2024/04/06 00:38:42;;;;;;;18.42;4.50;;;;;;;;;;5055405;28;20035;-85
2024/04/06 00:41:08;;;;;;;7.72;4.30;;;;;;;;;;5055204;28;20055;-84
2024/04/06 00:43:34;;;;;;;7.13;3.85;;;;;;;;;;5056814;28;20119;-85
2024/04/06 00:46:00;;;;;;;8.40;4.40;;;;;;;;;;5057503;28;20020;-86
2024/04/06 00:48:26;;;;;;;9.68;4.38;;;;;;;;;;5054686;28;20025;-86
2024/04/06 00:50:53;;;;;;;12.98;4.40;;;;;;;;;;5054886;28;20044;-86
2024/04/06 00:53:19;;;;;;;7.80;4.63;;;;;;;;;;5055327;28;20033;-86
2024/04/06 00:55:45;;;;;;;7.18;3.33;;;;;;;;;;5054677;28;20031;-85
2024/04/06 00:58:12;;;;;;;14.18;4.53;;;;;;;;;;5054362;28;20024;-86
2024/04/06 01:00:38;;;;;;;10.63;4.38;;;;;;;;;;5054744;28;20028;-85
2024/04/06 01:03:04;;;;;;;8.65;4.25;;;;;;;;;;5054135;28;20044;-84
2024/04/06 01:05:30;;;;;;;6.57;3.83;;;;;;;;;;5054340;28;20028;-85
2024/04/06 01:07:57;;;;;;;10.68;4.45;;;;;;;;;;5054287;28;20029;-85
2024/04/06 01:10:23;;;;;;;7.47;3.88;;;;;;;;;;5054114;28;20495;-83
2024/04/06 01:12:49;;;;;;;9.23;4.57;;;;;;;;;;5054238;28;20036;-83
2024/04/06 01:15:16;;;;;;;11.95;4.47;;;;;;;;;;5053916;28;20036;-85
2024/04/06 01:17:42;;;;;;;8.73;4.25;;;;;;;;;;5054967;28;20047;-86
2024/04/06 01:20:08;;;;;;;11.85;4.25;;;;;;;;;;5054560;28;20423;-86
2024/04/06 01:22:34;;;;;;;9.45;3.92;;;;;;;;;;5072219;28;20052;-86
2024/04/06 01:25:00;;;;;;;7.75;3.67;;;;;;;;;;5053968;28;20024;-85
2024/04/06 01:27:28;;;;;;;8.70;3.65;;;;;;;;;;5053812;28;20020;-85
2024/04/06 01:29:54;;;;;;;6.80;3.63;;;;;;;;;;5053956;28;20028;-85
2024/04/06 01:32:20;;;;;;;8.02;3.53;;;;;;;;;;5053782;28;20465;-85
2024/04/06 01:34:46;;;;;;;8.38;3.78;;;;;;;;;;5053917;28;20090;-85
2024/04/06 01:37:12;;;;;;;10.50;3.53;;;;;;;;;;5053976;28;20032;-85
2024/04/06 01:39:38;;;;;;;7.57;3.75;;;;;;;;;;5054633;28;20044;-83
2024/04/06 01:42:05;;;;;;;7.45;4.20;;;;;;;;;;5058855;28;20040;-84
2024/04/06 01:44:31;;;;;;;8.75;4.43;;;;;;;;;;5059040;28;20029;-85
2024/04/06 01:46:57;;;;;;;8.90;4.00;;;;;;;;;;5058273;28;20024;-86
2024/04/06 01:49:23;;;;;;;7.35;4.13;;;;;;;;;;5057497;28;20111;-84
2024/04/06 01:51:49;;;;;;;7.45;3.20;;;;;;;;;;5057697;28;20036;-84
2024/04/06 01:54:15;;;;;;;8.98;4.00;;;;;;;;;;5057842;28;20028;-85
2024/04/06 01:56:41;;;;;;;7.10;3.90;;;;;;;;;;5058003;28;20494;-85
2024/04/06 01:59:08;;;;;;;10.63;4.07;;;;;;;;;;5075461;28;20024;-85
2024/04/06 02:01:34;;;;;;;7.82;3.35;;;;;;;;;;5076149;28;20025;-85
2024/04/06 02:04:00;;;;;;;7.30;4.00;;;;;;;;;;5057729;28;20051;-85
2024/04/06 02:06:26;;;;;;;8.85;3.28;;;;;;;;;;5057442;28;20464;-86
2024/04/06 02:08:52;;;;;;;7.28;3.40;;;;;;;;;;5057502;28;20361;-83
2024/04/06 02:11:18;;;;;;;7.68;3.42;;;;;;;;;;5057336;28;20024;-84
2024/04/06 02:13:44;;;;;;;9.73;3.40;;;;;;;;;;5057656;28;20032;-85
2024/04/06 02:16:11;;;;;;;7.40;3.15;;;;;;;;;;5057589;28;20033;-84
2024/04/06 02:18:37;;;;;;;8.25;3.65;;;;;;;;;;5057629;28;20375;-85
2024/04/06 02:21:03;;;;;;;6.47;3.40;;;;;;;;;;5057550;28;20070;-83
2024/04/06 02:23:29;;;;;;;11.73;3.75;;;;;;;;;;5057125;28;20391;-84
2024/04/06 02:25:55;;;;;;;5.57;2.55;;;;;;;;;;5057521;28;20543;-84
2024/04/06 02:28:21;;;;;;;7.75;2.80;;;;;;;;;;5057174;28;20044;-84
2024/04/06 02:30:47;;;;;;;6.85;2.90;;;;;;;;;;5057084;28;20432;-83
2024/04/06 02:33:13;;;;;;;7.20;3.35;;;;;;;;;;5075096;28;20090;-84
2024/04/06 02:35:39;;;;;;;6.70;3.08;;;;;;;;;;5057462;28;20451;-85
2024/04/06 02:38:05;;;;;;;7.78;3.47;;;;;;;;;;5057383;28;20388;-86
2024/04/06 02:40:32;;;;;;;5.40;2.85;;;;;;;;;;5057473;28;20147;-86
2024/04/06 02:42:58;;;;;;;5.57;2.60;;;;;;;;;;5057930;28;20141;-86
2024/04/06 02:45:24;;;;;;;6.03;3.00;;;;;;;;;;5057213;28;20492;-84
2024/04/06 02:47:51;;;;;;;8.23;3.22;;;;;;;;;;5057492;28;20047;-83
2024/04/06 02:50:17;;;;;;;12.13;3.83;;;;;;;;;;5075401;28;20051;-83
2024/04/06 02:52:43;;;;;;;8.75;3.17;;;;;;;;;;5058098;28;20027;-81
2024/04/06 02:55:11;;;;;;;8.80;2.90;;;;;;;;;;5057139;28;20048;-82
2024/04/06 02:57:37;;;;;;;8.02;2.97;;;;;;;;;;5056598;28;20025;-82
2024/04/06 03:00:03;;;;;;;7.85;2.97;;;;;;;;;;5074613;28;20031;-82
2024/04/06 03:02:29;;;;;;;8.18;2.97;;;;;;;;;;5056454;28;20035;-83
2024/04/06 03:04:55;;;;;;;8.93;2.90;;;;;;;;;;5056610;28;20028;-83
2024/04/06 03:07:22;;;;;;;7.53;3.08;;;;;;;;;;5056148;28;20376;-83
2024/04/06 03:09:48;;;;;;;6.90;3.00;;;;;;;;;;5056587;28;20056;-82
2024/04/06 03:12:14;;;;;;;7.65;2.60;;;;;;;;;;5056129;28;20457;-83
2024/04/06 03:14:40;;;;;;;6.10;2.65;;;;;;;;;;5056408;28;20031;-85
2024/04/06 03:17:06;;;;;;;6.90;3.00;;;;;;;;;;5056446;28;20044;-83
2024/04/06 03:19:32;;;;;;;6.75;2.83;;;;;;;;;;5056093;28;20089;-83
2024/04/06 03:21:58;;;;;;;7.90;2.35;;;;;;;;;;5056227;28;20456;-83
2024/04/06 03:24:24;;;;;;;9.35;3.33;;;;;;;;;;5056076;28;20082;-83
2024/04/06 03:26:51;;;;;;;5.45;2.33;;;;;;;;;;5056142;28;20029;-83
2024/04/06 03:29:17;;;;;;;11.48;3.88;;;;;;;;;;5055954;28;20016;-83
2024/04/06 03:31:43;;;;;;;8.93;3.75;;;;;;;;;;5055559;28;20059;-85
2024/04/06 03:34:10;;;;;;;8.73;3.60;;;;;;;;;;5056083;28;20035;-82
2024/04/06 03:36:37;;;;;;;6.22;2.90;;;;;;;;;;5055945;28;20020;-82
2024/04/06 03:39:03;;;;;;;6.85;3.28;;;;;;;;;;5073668;28;20125;-81
2024/04/06 03:41:29;;;;;;;8.02;3.70;;;;;;;;;;5055589;28;20043;-81
2024/04/06 03:43:55;;;;;;;8.73;3.65;;;;;;;;;;5055943;28;20119;-80
2024/04/06 03:46:21;;;;;;;8.25;3.83;;;;;;;;;;5055379;28;20021;-84
2024/04/06 03:48:47;;;;;;;9.43;4.13;;;;;;;;;;5055431;28;20510;-82
2024/04/06 03:51:13;;;;;;;7.43;3.47;;;;;;;;;;5073624;28;20063;-82
2024/04/06 03:53:42;;;;;;;10.30;4.05;;;;;;;;;;5056043;28;20028;-82
2024/04/06 03:56:08;;;;;;;7.07;3.28;;;;;;;;;;5056127;28;20416;-82
2024/04/06 03:58:34;;;;;;;10.50;3.88;;;;;;;;;;5055716;28;20465;-83
2024/04/06 04:01:00;;;;;;;11.93;4.43;;;;;;;;;;5056194;28;20036;-83
2024/04/06 04:03:26;;;;;;;8.05;3.45;;;;;;;;;;5055192;28;20093;-84
2024/04/06 04:05:52;;;;;;;13.73;3.85;;;;;;;;;;5056428;28;20111;-82
2024/04/06 04:08:18;;;;;;;6.93;3.85;;;;;;;;;;5056216;28;20025;-84
2024/04/06 04:10:44;;;;;;;7.18;3.65;;;;;;;;;;5056467;28;20024;-83
2024/04/06 04:13:11;;;;;;;12.60;4.40;;;;;;;;;;5057409;28;20025;-83
2024/04/06 04:15:40;;;;;;;8.95;5.80;;;;;;;;;;5073989;28;20021;-84
2024/04/06 04:18:07;;;;;;;8.03;5.20;;;;;;;;;;5055636;28;20024;-83
2024/04/06 04:20:33;;;;;;;8.52;4.20;;;;;;;;;;5073674;28;20956;-83
2024/04/06 04:23:03;;;;;;;8.63;4.07;;;;;;;;;;5055836;28;20032;-83
2024/04/06 04:25:29;;;;;;;12.13;4.70;;;;;;;;;;5056001;28;20032;-84
2024/04/06 04:28:01;;;;;;;11.75;5.07;;;;;;;;;;5073268;28;20438;-85
2024/04/06 04:30:27;;;;;;;7.07;4.10;;;;;;;;;;5054615;28;20055;-84
2024/04/06 04:32:54;;;;;;;8.20;4.78;;;;;;;;;;5055102;28;20460;-84
2024/04/06 04:35:23;;;;;;;11.45;5.90;;;;;;;;;;5055182;28;20035;-85
2024/04/06 04:37:49;;;;;;;8.68;5.38;;;;;;;;;;5054743;28;20029;-84
2024/04/06 04:40:15;;;;;;;14.05;4.50;;;;;;;;;;5054809;28;20112;-83
2024/04/06 04:42:41;;;;;;;11.95;6.07;;;;;;;;;;5054827;28;20070;-84
2024/04/06 04:45:07;;;;;;;11.02;5.88;;;;;;;;;;5054720;28;20024;-84
2024/04/06 04:47:33;;;;;;;10.90;4.95;;;;;;;;;;5072283;28;20051;-84
2024/04/06 04:49:59;;;;;;;10.38;4.90;;;;;;;;;;5054702;28;20052;-83
2024/04/06 04:52:26;;;;;;;9.95;4.85;;;;;;;;;;5054484;28;20123;-83
2024/04/06 04:54:52;;;;;;;9.50;5.70;;;;;;;;;;5054816;28;20391;-83
2024/04/06 04:57:18;;;;;;;9.40;4.70;;;;;;;;;;5055197;28;20025;-83
2024/04/06 04:59:44;;;;;;;7.63;3.95;;;;;;;;;;5056221;28;20090;-84
2024/04/06 05:02:10;;;;;;;10.40;5.70;;;;;;;;;;5072940;28;20025;-83
2024/04/06 05:04:39;;;;;;;10.95;5.03;;;;;;;;;;5072327;28;20048;-84
2024/04/06 05:07:04;;;;;;;10.75;5.40;;;;;;;;;;5054303;28;20020;-85
2024/04/06 05:09:31;;;;;;;9.20;4.45;;;;;;;;;;5054055;28;20021;-84
2024/04/06 05:11:57;;;;;;;9.43;4.38;;;;;;;;;;5054443;28;20049;-84
2024/04/06 05:14:23;;;;;;;9.27;4.75;;;;;;;;;;5072112;28;20025;-85
2024/04/06 05:16:49;;;;;;;9.43;4.40;;;;;;;;;;5054411;28;20033;-84
2024/04/06 05:19:15;;;;;;;6.75;3.30;;;;;;;;;;5054084;28;20024;-85
2024/04/06 05:21:41;;;;;;;7.38;3.63;;;;;;;;;;5053947;28;20017;-85
2024/04/06 05:24:07;;;;;;;8.57;3.47;;;;;;;;;;5054220;28;20063;-85
2024/04/06 05:26:33;;;;;;;6.90;3.67;;;;;;;;;;5053843;28;20062;-85
2024/04/06 05:28:59;;;;;;;5.80;2.55;;;;;;;;;;5072509;28;20033;-83
2024/04/06 05:31:25;;;;;;;13.75;5.47;;;;;;;;;;5053721;28;20362;-84
2024/04/06 05:33:52;;;;;;;8.20;3.78;;;;;;;;;;5054425;28;20452;-83
2024/04/06 05:36:18;;;;;;;9.63;4.93;;;;;;;;;;5054001;28;20361;-85
2024/04/06 05:38:44;;;;;;;8.15;4.55;;;;;;;;;;5053749;28;20127;-86
2024/04/06 05:41:10;;;;;;;9.48;3.63;;;;;;;;;;5072439;28;20078;-86
2024/04/06 05:43:36;;;;;;;12.90;4.82;;;;;;;;;;5053767;28;20024;-84
2024/04/06 05:46:05;;;;;;;13.85;5.90;;;;;;;;;;5053997;28;20032;-85
2024/04/06 05:48:31;;;;;;;9.77;2.65;;;;;;;;;;5053995;28;20060;-86
2024/04/06 05:50:58;;;;;;;7.65;4.90;;;;;;;;;;5055073;28;20037;-85
2024/04/06 05:53:24;;;;;;;10.65;4.70;;;;;;;;;;5053832;28;20456;-86
2024/04/06 05:55:50;;;;;;;10.52;5.30;;;;;;;;;;5072046;28;20025;-85
2024/04/06 05:58:16;;;;;;;10.18;5.55;;;;;;;;;;5054794;28;20025;-86
2024/04/06 06:00:42;;;;;;;8.70;4.90;;;;;;;;;;5053863;28;20048;-86
2024/04/06 06:03:09;;;;;;;11.27;4.75;;;;;;;;;;5053901;28;20076;-86
2024/04/06 06:05:35;;;;;;;7.32;4.43;;;;;;;;;;5053726;28;20071;-85
2024/04/06 06:08:01;;;;;;;9.23;4.43;;;;;;;;;;5053837;28;20031;-86
2024/04/06 06:10:27;;;;;;;10.90;4.38;;;;;;;;;;5053763;28;20032;-84
2024/04/06 06:12:53;;;;;;;10.95;5.25;;;;;;;;;;5054004;28;20029;-86
2024/04/06 06:15:19;;;;;;;8.50;5.28;;;;;;;;;;5054082;28;20032;-85
2024/04/06 06:17:45;;;;;;;11.80;4.53;;;;;;;;;;5053665;28;20431;-85
2024/04/06 06:20:11;;;;;;;7.95;4.07;;;;;;;;;;5054195;28;20027;-86
2024/04/06 06:22:37;;;;;;;10.43;4.80;;;;;;;;;;5053509;28;20028;-86
2024/04/06 06:25:03;;;;;;;11.15;4.97;;;;;;;;;;5071707;28;20031;-87
2024/04/06 06:27:30;;;;;;;10.20;5.28;;;;;;;;;;5056075;28;20036;-83
2024/04/06 06:29:56;;;;;;;10.40;4.32;;;;;;;;;;5057076;28;20025;-82
2024/04/06 06:32:23;;;;;;;8.07;4.05;;;;;;;;;;5057033;28;20029;-84
2024/04/06 06:34:49;;;;;;;9.80;5.10;;;;;;;;;;5057091;28;20154;-84
2024/04/06 06:37:15;;;;;;;8.07;3.97;;;;;;;;;;5057154;28;20106;-83
2024/04/06 06:39:41;;;;;;;8.82;4.32;;;;;;;;;;5056679;28;20044;-83
2024/04/06 06:42:10;;;;;;;6.47;3.35;;;;;;;;;;5056920;28;20016;-83
2024/04/06 06:44:36;;;;;;;5.07;1.77;;;;;;;;;;5074714;28;20031;-82
2024/04/06 06:47:03;;;;;;;7.35;2.53;;;;;;;;;;5057306;28;20029;-83
2024/04/06 06:49:29;;;;;;;8.73;3.25;;;;;;;;;;5056456;28;20116;-83
2024/04/06 06:51:55;;;;;;;8.55;2.17;;;;;;;;;;5056900;28;20107;-84
2024/04/06 06:54:21;;;;;;;7.30;2.10;;;;;;;;;;5056674;28;20028;-82
2024/04/06 06:56:47;;;;;;;3.40;1.73;;;;;;;;;;5057021;28;20353;-83
2024/04/06 06:59:14;;;;;;;4.13;1.60;;;;;;;;;;5057337;28;20051;-82
2024/04/06 07:01:40;;;;;;;5.80;2.47;;;;;;;;;;5056570;28;20480;-82
2024/04/06 07:04:06;;;;;;;6.00;2.00;;;;;;;;;;5056985;28;20082;-83
2024/04/06 07:06:32;;;;;;;5.00;1.95;;;;;;;;;;5057214;28;20024;-83
2024/04/06 07:08:58;;;;;;;3.78;1.88;;;;;;;;;;5076511;28;20024;-83
2024/04/06 07:11:24;;;;;;;4.68;2.03;;;;;;;;;;5075605;28;20040;-82
2024/04/06 07:13:50;;;;;;;4.47;1.88;;;;;;;;;;5056453;28;20376;-81
2024/04/06 07:16:16;;;;;;;5.60;1.67;;;;;;;;;;5056285;28;20037;-82
2024/04/06 07:18:43;;;;;;;4.22;2.20;;;;;;;;;;5056250;28;20025;-81
2024/04/06 07:21:10;;;;;;;6.00;2.10;;;;;;;;;;5056239;28;20506;-82
2024/04/06 07:23:37;;;;;;;5.22;1.60;;;;;;;;;;5055858;28;20483;-83
2024/04/06 07:26:03;;;;;;;8.00;1.90;;;;;;;;;;5056193;28;20020;-82
2024/04/06 07:28:29;;;;;;;4.88;1.90;;;;;;;;;;5056052;28;20167;-84
2024/04/06 07:30:55;;;;;;;4.90;1.85;;;;;;;;;;5056064;28;20101;-83
2024/04/06 07:33:21;;;;;;;5.75;1.55;;;;;;;;;;5056069;28;20025;-83
2024/04/06 07:35:48;;;;;;;5.68;1.88;;;;;;;;;;5073615;28;20465;-83
2024/04/06 07:38:14;;;;;;;8.73;2.22;;;;;;;;;;5055833;28;20074;-82
2024/04/06 07:40:40;;;;;;;5.35;1.98;;;;;;;;;;5055708;28;20043;-82
2024/04/06 07:43:06;;;;;;;5.72;1.73;;;;;;;;;;5055626;28;20029;-82
2024/04/06 07:45:33;;;;;;;7.43;2.55;;;;;;;;;;5056035;28;20033;-82
2024/04/06 07:47:59;;;;;;;5.25;1.98;;;;;;;;;;5055809;28;20498;-83
2024/04/06 07:50:25;;;;;;;8.23;2.17;;;;;;;;;;5055777;28;20074;-83
2024/04/06 07:52:51;;;;;;;4.45;1.65;;;;;;;;;;5073333;28;20025;-82
2024/04/06 07:55:17;;;;;;;5.07;1.63;;;;;;;;;;5055614;28;20037;-81
2024/04/06 07:57:44;;;;;;;6.45;1.88;;;;;;;;;;5055248;28;20468;-81
2024/04/06 08:00:14;;;;;;;4.88;1.83;;;;;;;;;;5055871;28;20041;-82
2024/04/06 08:02:43;;;;;;;7.25;1.80;;;;;;;;;;5073184;28;20025;-81
2024/04/06 08:05:09;;;;;;;4.85;1.90;;;;;;;;;;5055595;28;20380;-81
2024/04/06 08:07:35;;;;;;;5.50;2.17;;;;;;;;;;5055228;28;20017;-82
2024/04/06 08:10:13;;;;;;;5.00;1.60;;;;;;;;;;5055644;28;20051;-83
2024/04/06 08:12:39;;;;;;;5.82;1.70;;;;;;;;;;5055169;28;20028;-82
2024/04/06 08:15:05;;;;;;;5.55;1.73;;;;;;;;;;5073182;28;20024;-82
2024/04/06 08:17:31;;;;;;;4.00;1.80;;;;;;;;;;5055320;28;20033;-82
2024/04/06 08:19:57;;;;;;;4.13;1.52;;;;;;;;;;5055365;28;20074;-83
2024/04/06 08:22:23;;;;;;;4.60;1.90;;;;;;;;;;5055014;28;20027;-82
2024/04/06 08:24:49;;;;;;;4.93;1.50;;;;;;;;;;5055108;28;20032;-82
2024/04/06 08:27:15;;;;;;;5.78;1.80;;;;;;;;;;5054985;28;20055;-81
2024/04/06 08:29:42;;;;;;;4.90;1.75;;;;;;;;;;5054920;28;20036;-82
2024/04/06 08:32:08;;;;;;;6.60;1.77;;;;;;;;;;5073170;28;20055;-82
2024/04/06 08:34:34;;;;;;;3.22;1.52;;;;;;;;;;5054779;28;20032;-82
2024/04/06 08:37:01;;;;;;;5.28;1.58;;;;;;;;;;5054828;28;20098;-83
2024/04/06 08:39:28;;;;;;;7.25;1.80;;;;;;;;;;5054854;28;20082;-82
2024/04/06 08:41:56;;;;;;;3.35;1.20;;;;;;;;;;5054801;28;20021;-82
2024/04/06 08:44:28;;;;;;;5.97;1.48;;;;;;;;;;5072682;28;20472;-83
2024/04/06 08:46:54;;;;;;;4.55;1.60;;;;;;;;;;5054708;28;20024;-82
2024/04/06 08:49:21;;;;;;;4.07;1.50;;;;;;;;;;5054164;28;20024;-82
2024/04/06 08:51:49;;;;;;;3.10;1.38;;;;;;;;;;5054384;28;20021;-82
2024/04/06 08:54:15;;;;;;;3.10;1.45;;;;;;;;;;5054420;28;20112;-82
2024/04/06 08:56:42;;;;;;;3.63;1.70;;;;;;;;;;5053933;28;20028;-83
2024/04/06 08:59:09;;;;;;;5.32;1.98;;;;;;;;;;5056884;28;20020;-81
2024/04/06 09:01:35;;;;;;;5.47;1.55;;;;;;;;;;5060144;28;20032;-82
2024/04/06 09:04:01;;;;;;;4.53;1.35;;;;;;;;;;5054613;28;20435;-82
2024/04/06 09:06:27;;;;;;;5.40;1.55;;;;;;;;;;5054495;28;20024;-82
2024/04/06 09:08:53;;;;;;;4.72;1.45;;;;;;;;;;5072318;28;20368;-82
2024/04/06 09:11:19;;;;;;;2.97;1.08;;;;;;;;;;5054524;28;20035;-81
2024/04/06 09:13:45;;;;;;;3.55;1.35;;;;;;;;;;5054674;28;20032;-81
2024/04/06 09:16:11;;;;;;;5.32;1.80;;;;;;;;;;5055114;28;20028;-80
2024/04/06 09:18:38;;;;;;;6.35;1.75;;;;;;;;;;5054058;28;20088;-80
2024/04/06 09:21:07;;;;;;;5.07;1.10;;;;;;;;;;5054124;28;20089;-80
2024/04/06 09:23:34;;;;;;;3.65;1.70;;;;;;;;;;5053957;28;20384;-81
2024/04/06 09:26:01;;;;;;;5.25;1.70;;;;;;;;;;5053791;28;20132;-81
2024/04/06 09:28:27;;;;;;;3.33;1.50;;;;;;;;;;5054279;28;20048;-82
2024/04/06 09:31:00;;;;;;;5.53;1.42;;;;;;;;;;5071597;28;20051;-81
2024/04/06 09:33:27;;;;;;;6.47;1.73;;;;;;;;;;5053985;28;20036;-81
2024/04/06 09:35:53;;;;;;;4.70;1.63;;;;;;;;;;5053790;28;20123;-81
2024/04/06 09:38:19;;;;;;;7.10;1.48;;;;;;;;;;5054074;28;20028;-81
2024/04/06 09:40:47;;;;;;;5.38;1.52;;;;;;;;;;5053637;28;20029;-81
2024/04/06 09:43:16;;;;;;;6.25;2.10;;;;;;;;;;5053873;28;20027;-81
2024/04/06 09:45:43;;;;;;;7.27;2.17;;;;;;;;;;5053466;28;20025;-82
2024/04/06 09:48:10;;;;;;;4.32;1.63;;;;;;;;;;5071736;28;20086;-81
2024/04/06 09:50:39;;;;;;;5.47;1.27;;;;;;;;;;5053347;28;20089;-81
2024/04/06 09:53:10;;;;;;;4.60;1.27;;;;;;;;;;5053624;28;20025;-81
2024/04/06 09:55:37;;;;;;;4.68;1.30;;;;;;;;;;5053283;28;20035;-81
2024/04/06 09:58:04;;;;;;;6.13;1.52;;;;;;;;;;5053777;28;20029;-81
2024/04/06 10:00:30;;;;;;;4.85;1.70;;;;;;;;;;5053713;28;20048;-80
2024/04/06 10:02:56;;;;;;;4.47;1.52;;;;;;;;;;5056948;28;20116;-81
2024/04/06 10:05:22;;;;;;;4.35;1.67;;;;;;;;;;5075637;28;20077;-81
2024/04/06 10:07:55;;;;;;;3.95;1.45;;;;;;;;;;5057349;28;20429;-81
2024/04/06 10:10:31;;;;;;;5.18;1.70;;;;;;;;;;5057021;28;20020;-81
2024/04/06 10:12:57;;;;;;;3.75;1.30;;;;;;;;;;5056966;28;20031;-80
2024/04/06 10:15:23;;;;;;;3.55;1.30;;;;;;;;;;5056944;28;20464;-82
2024/04/06 10:17:50;;;;;;;4.07;1.27;;;;;;;;;;5074859;28;20063;-82
2024/04/06 10:20:22;;;;;;;7.13;2.10;;;;;;;;;;5056924;28;20023;-82
2024/04/06 10:22:53;;;;;;;6.88;1.52;;;;;;;;;;5056622;28;20031;-82
2024/04/06 10:25:26;;;;;;;6.18;1.65;;;;;;;;;;5057138;28;20032;-82
2024/04/06 10:28:04;;;;;;;4.75;1.50;;;;;;;;;;5074912;28;20025;-82
2024/04/06 10:30:30;;;;;;;5.25;1.35;;;;;;;;;;5053550;28;20135;-82
2024/04/06 10:32:57;;;;;;;3.90;1.10;;;;;;;;;;5053739;28;20029;-82
2024/04/06 10:35:23;;;;;;;3.97;1.48;;;;;;;;;;5053751;28;20449;-82
2024/04/06 10:37:50;;;;;;;5.60;1.40;;;;;;;;;;5053510;28;20037;-82
2024/04/06 10:40:16;;;;;;;6.30;1.85;;;;;;;;;;5053643;28;20041;-82
2024/04/06 10:42:42;;;;;;;6.50;1.00;;;;;;;;;;5053124;28;20119;-82
2024/04/06 10:45:11;;;;;;;5.18;1.48;;;;;;;;;;5054655;28;20025;-83
2024/04/06 10:47:38;;;;;;;4.35;1.70;;;;;;;;;;5053052;28;20017;-82
2024/04/06 10:50:08;;;;;;;5.75;1.58;;;;;;;;;;5053216;28;20029;-82
2024/04/06 10:52:34;;;;;;;5.05;1.85;;;;;;;;;;5054513;28;20025;-82
2024/04/06 10:55:09;;;;;;;4.00;1.60;;;;;;;;;;5053186;28;20501;-82
2024/04/06 10:57:35;;;;;;;6.30;1.35;;;;;;;;;;5053099;28;20083;-82
2024/04/06 11:00:03;;;;;;;8.02;2.30;;;;;;;;;;5053129;28;20113;-82
2024/04/06 11:02:29;;;;;;;5.40;1.20;;;;;;;;;;5053104;28;20025;-81
2024/04/06 11:04:57;;;;;;;4.07;1.20;;;;;;;;;;5052777;28;20025;-81
2024/04/06 11:07:23;;;;;;;5.50;1.50;;;;;;;;;;5053015;28;20439;-81
2024/04/06 11:09:49;;;;;;;6.80;1.48;;;;;;;;;;5052557;28;20029;-82
2024/04/06 11:12:15;;;;;;;5.18;1.60;;;;;;;;;;5052304;28;20021;-80
2024/04/06 11:14:41;;;;;;;4.43;1.50;;;;;;;;;;5052543;28;20025;-81
2024/04/06 11:17:07;;;;;;;3.03;1.25;;;;;;;;;;5052844;28;20094;-80
2024/04/06 11:19:34;;;;;;;3.30;1.15;;;;;;;;;;5054631;28;20025;-82
2024/04/06 11:22:06;;;;;;;5.78;1.52;;;;;;;;;;5056036;28;20040;-83
2024/04/06 11:24:32;;;;;;;4.30;1.40;;;;;;;;;;5054439;28;20025;-83
2024/04/06 11:27:05;;;;;;;4.50;1.48;;;;;;;;;;5053793;28;20024;-84
2024/04/06 11:29:31;;;;;;;4.10;1.35;;;;;;;;;;5055173;28;20025;-84
2024/04/06 11:31:57;;;;;;;7.10;1.35;;;;;;;;;;5053566;28;20040;-85
2024/04/06 11:34:23;;;;;;;4.50;1.48;;;;;;;;;;5054929;28;20075;-85
2024/04/06 11:36:49;;;;;;;6.72;0.90;;;;;;;;;;5054052;28;20028;-85
2024/04/06 11:39:16;;;;;;;4.78;1.70;;;;;;;;;;5055507;28;20048;-85
2024/04/06 11:41:42;;;;;;;4.75;1.10;;;;;;;;;;5055031;28;20396;-85
2024/04/06 11:44:08;;;;;;;3.03;1.20;;;;;;;;;;5054837;28;20103;-86
2024/04/06 11:46:34;;;;;;;6.28;1.25;;;;;;;;;;5054776;28;20087;-85
2024/04/06 11:49:01;;;;;;;2.58;1.15;;;;;;;;;;5056205;28;20480;-86
2024/04/06 11:51:29;;;;;;;5.38;1.30;;;;;;;;;;5056641;28;20064;-84
2024/04/06 11:53:55;;;;;;;3.80;1.20;;;;;;;;;;5053024;28;20135;-85
2024/04/06 11:56:21;;;;;;;6.95;1.30;;;;;;;;;;5052629;28;20511;-86
2024/04/06 11:58:50;;;;;;;2.80;1.20;;;;;;;;;;5053260;28;20029;-85
2024/04/06 12:01:19;;;;;;;4.30;1.08;;;;;;;;;;5052616;28;20055;-86
2024/04/06 12:03:45;;;;;;;7.03;1.17;;;;;;;;;;5052241;28;20354;-84
2024/04/06 12:06:17;;;;;;;4.70;1.25;;;;;;;;;;5052380;28;20275;-84
2024/04/06 12:08:43;;;;;;;3.60;1.15;;;;;;;;;;5051832;28;20029;-84
2024/04/06 12:11:09;;;;;;;3.50;0.90;;;;;;;;;;5052239;28;20032;-84
2024/04/06 12:13:35;;;;;;;3.88;1.25;;;;;;;;;;5051711;28;20028;-83
2024/04/06 12:16:01;;;;;;;3.17;1.02;;;;;;;;;;5051439;28;20469;-84
2024/04/06 12:18:28;;;;;;;11.27;2.42;;;;;;;;;;5051998;28;20174;-84
2024/04/06 12:20:54;;;;;;;3.53;1.00;;;;;;;;;;5051589;28;20025;-85
2024/04/06 12:23:20;;;;;;;3.35;1.20;;;;;;;;;;5053304;28;20424;-86
2024/04/06 12:25:46;;;;;;;3.42;1.50;;;;;;;;;;5050898;28;20029;-86
2024/04/06 12:28:12;;;;;;;3.70;1.13;;;;;;;;;;5051613;28;20025;-86
2024/04/06 12:30:38;;;;;;;2.67;1.00;;;;;;;;;;5051682;28;20041;-83
2024/04/06 12:33:04;;;;;;;5.88;1.38;;;;;;;;;;5051897;28;20381;-86
2024/04/06 12:35:30;;;;;;;2.72;1.10;;;;;;;;;;5051741;28;20064;-86
2024/04/06 12:37:56;;;;;;;2.53;0.95;;;;;;;;;;5051411;28;20028;-85
2024/04/06 12:40:22;;;;;;;4.35;1.25;;;;;;;;;;5051582;28;20021;-86
2024/04/06 12:42:50;;;;;;;3.35;1.23;;;;;;;;;;5051507;28;20033;-85
2024/04/06 12:45:16;;;;;;;3.00;1.00;;;;;;;;;;5051549;28;20032;-84
2024/04/06 12:47:42;;;;;;;4.55;1.30;;;;;;;;;;5051223;28;20026;-84
2024/04/06 12:50:09;;;;;;;3.75;1.10;;;;;;;;;;5052447;28;20063;-84
2024/04/06 12:52:35;;;;;;;3.55;1.17;;;;;;;;;;5052340;28;20040;-84
2024/04/06 12:55:01;;;;;;;2.60;0.90;;;;;;;;;;5052637;28;20032;-84
2024/04/06 12:57:36;;;;;;;2.67;1.02;;;;;;;;;;5051129;28;20068;-84
2024/04/06 13:00:06;;;;;;;3.70;1.00;;;;;;;;;;5051059;28;20384;-84
2024/04/06 13:02:33;;;;;;;4.68;1.38;;;;;;;;;;5051740;28;20017;-84
2024/04/06 13:04:59;;;;;;;3.13;0.77;;;;;;;;;;5052433;28;20575;-84
2024/04/06 13:07:25;;;;;;;2.25;0.70;;;;;;;;;;5051420;28;20481;-84
2024/04/06 13:09:54;;;;;;;7.15;1.00;;;;;;;;;;5050909;28;20063;-84
2024/04/06 13:12:24;;;;;;;2.77;1.00;;;;;;;;;;5056802;28;20040;-83
2024/04/06 13:14:50;;;;;;;2.72;0.65;;;;;;;;;;5059064;28;20036;-84
2024/04/06 13:17:17;;;;;;;2.80;0.80;;;;;;;;;;5051430;28;20094;-84
2024/04/06 13:19:43;;;;;;;2.67;1.00;;;;;;;;;;5051457;28;20029;-85
2024/04/06 13:22:09;;;;;;;3.72;1.15;;;;;;;;;;5052816;28;20050;-84
2024/04/06 13:24:35;;;;;;;3.75;1.15;;;;;;;;;;5053600;28;20051;-84
2024/04/06 13:27:01;;;;;;;2.13;0.70;;;;;;;;;;5052901;28;20396;-83
2024/04/06 13:29:27;;;;;;;3.95;0.85;;;;;;;;;;5052470;28;20040;-84
2024/04/06 13:31:53;;;;;;;5.53;1.08;;;;;;;;;;5050570;28;20041;-84
2024/04/06 13:34:19;;;;;;;3.42;1.00;;;;;;;;;;5051201;28;20110;-84
2024/04/06 13:36:45;;;;;;;1.60;0.65;;;;;;;;;;5058342;28;20024;-84
2024/04/06 13:39:12;;;;;;;3.28;1.00;;;;;;;;;;5057466;28;20021;-84
2024/04/06 13:41:38;;;;;;;1.63;0.70;;;;;;;;;;5058633;28;20071;-84
2024/04/06 13:44:04;;;;;;;4.30;1.13;;;;;;;;;;5057550;28;20056;-84
2024/04/06 13:46:30;;;;;;;2.80;0.90;;;;;;;;;;5057325;28;20170;-85
2024/04/06 13:48:57;;;;;;;2.63;1.00;;;;;;;;;;5058466;28;20028;-84
2024/04/06 13:51:23;;;;;;;3.60;0.95;;;;;;;;;;5057192;28;20029;-84
2024/04/06 13:53:49;;;;;;;4.55;0.80;;;;;;;;;;5056859;28;20117;-84
2024/04/06 13:56:15;;;;;;;3.67;0.98;;;;;;;;;;5056791;28;20056;-84
2024/04/06 13:58:44;;;;;;;2.83;0.90;;;;;;;;;;5056933;28;20094;-84
2024/04/06 14:01:13;;;;;;;3.92;0.98;;;;;;;;;;5059589;28;20036;-84
2024/04/06 14:03:40;;;;;;;1.95;0.77;;;;;;;;;;5057981;28;20104;-83
2024/04/06 14:06:06;;;;;;;5.57;1.05;;;;;;;;;;5057888;28;20025;-83
2024/04/06 14:08:32;;;;;;;4.88;1.33;;;;;;;;;;5057421;28;20115;-84
2024/04/06 14:10:58;;;;;;;2.55;0.80;;;;;;;;;;5057008;28;20052;-83
2024/04/06 14:13:33;;;;;;;3.60;1.35;;;;;;;;;;5057231;28;20036;-84
2024/04/06 14:16:00;;;;;;;2.90;0.93;;;;;;;;;;5057333;28;20114;-83
2024/04/06 14:18:26;;;;;;;3.58;1.20;;;;;;;;;;5057253;28;20112;-84
2024/04/06 14:20:53;;;;;;;2.78;1.10;;;;;;;;;;5056974;28;20139;-83
2024/04/06 14:23:19;;;;;;;4.78;0.90;;;;;;;;;;5057014;28;20078;-84
2024/04/06 14:25:47;;;;;;;5.22;1.35;;;;;;;;;;5057061;28;20025;-84
2024/04/06 14:28:13;;;;;;;3.47;1.02;;;;;;;;;;5056717;28;20017;-83
2024/04/06 14:30:39;;;;;;;4.90;1.10;;;;;;;;;;5057170;28;20128;-84
2024/04/06 14:33:05;;;;;;;1.92;0.77;;;;;;;;;;5057245;28;20025;-83
2024/04/06 14:35:31;;;;;;;3.20;0.98;;;;;;;;;;5058146;28;20033;-84
2024/04/06 14:37:58;;;;;;;3.70;0.80;;;;;;;;;;5058532;28;20025;-83